Time;durP1;ratioP1;P1;durP2;ratioP2;P2;SDS_P1;SDS_P2;PMS_P1;PMS_P2;Temp;Humidity;BMP_temperature;BMP_pressure;BME280_temperature;BME280_humidity;BME280_pressure;Samples;Min_cycle;Max_cycle;Signal;HPM_P1;HPM_P2
2023/04/27 00:00:58;;;;;;;2.27;1.43;;;17.70;56.80;;;;;;5068838;28;20225;-47
2023/04/27 00:03:27;;;;;;;1.23;1.13;;;17.60;56.80;;;;;;5052664;28;20642;-47
2023/04/27 00:06:00;;;;;;;2.00;1.53;;;17.60;56.80;;;;;;5070893;28;20197;-47
2023/04/27 00:08:28;;;;;;;1.93;1.83;;;17.60;56.80;;;;;;5068125;28;20207;-47
2023/04/27 00:11:02;;;;;;;1.77;1.37;;;17.60;56.80;;;;;;5051918;28;20224;-47
2023/04/27 00:13:34;;;;;;;2.00;1.83;;;17.60;56.80;;;;;;5070322;28;20198;-47
2023/04/27 00:16:05;;;;;;;1.50;1.30;;;17.60;56.80;;;;;;5052256;28;20193;-47
2023/04/27 00:18:36;;;;;;;2.00;1.27;;;17.60;56.80;;;;;;5066697;28;20194;-48
2023/04/27 00:21:09;;;;;;;1.80;1.10;;;17.50;56.80;;;;;;5055771;28;20210;-47
2023/04/27 00:23:38;;;;;;;1.23;1.00;;;17.60;56.80;;;;;;5051555;28;20706;-47
2023/04/27 00:26:08;;;;;;;2.40;1.33;;;17.50;56.80;;;;;;5071889;28;20216;-47
2023/04/27 00:28:39;;;;;;;2.03;1.40;;;17.50;56.80;;;;;;5053665;28;20190;-47
2023/04/27 00:31:13;;;;;;;2.27;1.73;;;17.50;56.80;;;;;;5069708;28;20209;-47
2023/04/27 00:33:42;;;;;;;1.53;1.13;;;17.50;56.80;;;;;;5069127;28;20206;-47
2023/04/27 00:36:12;;;;;;;2.23;1.60;;;17.50;56.80;;;;;;5070857;28;20190;-47
2023/04/27 00:38:42;;;;;;;1.30;1.17;;;17.50;56.80;;;;;;5077999;28;20197;-47
2023/04/27 00:41:12;;;;;;;1.30;1.20;;;17.50;56.80;;;;;;5079262;28;20668;-47
2023/04/27 00:43:43;;;;;;;1.53;1.40;;;17.50;56.80;;;;;;5048713;28;20226;-48
2023/04/27 00:46:18;;;;;;;1.40;1.30;;;17.40;56.80;;;;;;5058848;28;20193;-47
2023/04/27 00:48:51;;;;;;;3.43;1.30;;;17.40;56.80;;;;;;5077706;28;20263;-47
2023/04/27 00:51:19;;;;;;;2.33;1.70;;;17.40;56.80;;;;;;5045752;28;20291;-48
2023/04/27 00:54:03;;;;;;;2.23;1.80;;;17.40;56.80;;;;;;5076449;28;20588;-47
2023/04/27 00:56:35;;;;;;;1.77;1.33;;;17.40;56.80;;;;;;5082284;28;20595;-47
2023/04/27 00:59:05;;;;;;;2.00;1.10;;;17.40;56.80;;;;;;5075316;28;20345;-47
2023/04/27 01:01:35;;;;;;;1.50;1.10;;;17.40;56.80;;;;;;5068774;28;20212;-47
2023/04/27 01:04:06;;;;;;;1.77;1.23;;;17.40;56.80;;;;;;5060562;28;20222;-47
2023/04/27 01:06:38;;;;;;;1.23;1.13;;;17.40;56.80;;;;;;5078824;28;20189;-47
2023/04/27 01:09:10;;;;;;;1.37;1.20;;;17.50;56.90;;;;;;5064998;28;20642;-47
2023/04/27 01:11:43;;;;;;;1.40;1.30;;;17.40;56.80;;;;;;5082166;28;20241;-47
2023/04/27 01:14:16;;;;;;;1.87;1.20;;;17.40;56.80;;;;;;5063511;28;20258;-48
2023/04/27 01:16:47;;;;;;;1.83;1.67;;;17.40;56.80;;;;;;5086546;28;20189;-47
2023/04/27 01:19:17;;;;;;;1.97;1.47;;;17.40;56.90;;;;;;5063511;28;20274;-47
2023/04/27 01:22:00;;;;;;;1.50;1.17;;;17.30;56.80;;;;;;5067636;28;20209;-47
2023/04/27 01:24:31;;;;;;;1.43;1.07;;;17.30;56.80;;;;;;5058935;28;20197;-47
2023/04/27 01:27:05;;;;;;;1.43;1.20;;;17.30;56.80;;;;;;5058974;28;20224;-48
2023/04/27 01:29:33;;;;;;;1.87;1.43;;;17.30;56.90;;;;;;5072857;28;20577;-47
2023/04/27 01:32:05;;;;;;;1.50;1.20;;;17.30;56.90;;;;;;5059978;28;20307;-47
2023/04/27 01:34:36;;;;;;;1.60;1.10;;;17.30;56.80;;;;;;5063237;28;20216;-48
2023/04/27 01:37:07;;;;;;;2.20;1.67;;;17.30;57.60;;;;;;5065981;28;20201;-47
2023/04/27 01:39:37;;;;;;;2.47;1.40;;;17.30;56.90;;;;;;5073325;28;20221;-47
2023/04/27 01:42:07;;;;;;;1.40;1.10;;;17.30;56.90;;;;;;5051279;28;20259;-47
2023/04/27 01:44:37;;;;;;;2.00;1.40;;;17.20;56.90;;;;;;5071335;28;20209;-48
2023/04/27 01:47:10;;;;;;;1.47;1.03;;;17.30;56.90;;;;;;5066924;28;20197;-47
2023/04/27 01:49:42;;;;;;;1.30;1.20;;;17.20;56.90;;;;;;5070218;28;20201;-48
2023/04/27 01:52:10;;;;;;;1.63;1.40;;;17.30;57.00;;;;;;5069521;28;20669;-47
2023/04/27 01:54:42;;;;;;;1.47;1.20;;;17.20;56.90;;;;;;5077795;28;20344;-47
2023/04/27 01:57:14;;;;;;;1.77;1.50;;;17.20;56.90;;;;;;5051965;28;20210;-47
2023/04/27 01:59:44;;;;;;;1.50;1.40;;;17.20;56.90;;;;;;5071592;28;20543;-47
2023/04/27 02:02:14;;;;;;;2.57;1.53;;;17.20;56.90;;;;;;5081684;28;20201;-47
2023/04/27 02:04:46;;;;;;;1.37;1.27;;;17.20;57.00;;;;;;5064695;28;20189;-47
2023/04/27 02:07:16;;;;;;;1.30;1.20;;;17.20;56.90;;;;;;5064779;28;20313;-47
2023/04/27 02:09:45;;;;;;;1.80;1.40;;;17.20;56.90;;;;;;5071154;28;20282;-47
2023/04/27 02:12:16;;;;;;;1.93;1.73;;;17.20;56.90;;;;;;5052431;28;20665;-47
2023/04/27 02:14:46;;;;;;;1.97;1.67;;;17.20;56.90;;;;;;5068296;28;20526;-47
2023/04/27 02:17:17;;;;;;;1.50;1.23;;;17.10;56.90;;;;;;5067297;28;20230;-47
2023/04/27 02:19:48;;;;;;;1.60;1.27;;;17.20;56.90;;;;;;5075355;28;20221;-47
2023/04/27 02:22:32;;;;;;;1.27;1.13;;;17.20;56.90;;;;;;5051053;28;20221;-47
2023/04/27 02:25:04;;;;;;;1.53;1.20;;;17.10;56.90;;;;;;5071583;28;20272;-47
2023/04/27 02:27:38;;;;;;;1.23;1.10;;;17.10;56.90;;;;;;5070031;28;20190;-47
2023/04/27 02:30:14;;;;;;;2.07;1.30;;;17.10;56.90;;;;;;5041904;28;20189;-47
2023/04/27 02:32:45;;;;;;;1.50;1.27;;;17.10;56.90;;;;;;5065955;28;20233;-47
2023/04/27 02:35:17;;;;;;;1.70;1.40;;;17.10;56.90;;;;;;5069687;28;20604;-47
2023/04/27 02:37:48;;;;;;;2.40;1.30;;;17.10;56.90;;;;;;5071940;28;20201;-47
2023/04/27 02:40:17;;;;;;;1.63;1.40;;;17.10;56.90;;;;;;5072078;28;20294;-47
2023/04/27 02:42:48;;;;;;;1.27;1.17;;;17.10;56.90;;;;;;5072561;28;20233;-47
2023/04/27 02:45:19;;;;;;;1.67;1.40;;;17.10;56.90;;;;;;5073379;28;20220;-47
2023/04/27 02:48:03;;;;;;;1.70;1.33;;;17.10;56.90;;;;;;5059316;28;20774;-47
2023/04/27 02:50:41;;;;;;;1.70;1.60;;;17.10;56.90;;;;;;5086453;28;20262;-47
2023/04/27 02:53:08;;;;;;;1.33;1.23;;;17.10;56.90;;;;;;5052809;28;20201;-47
2023/04/27 02:55:47;;;;;;;1.40;1.20;;;17.10;57.00;;;;;;5033475;28;20212;-47
2023/04/27 02:58:17;;;;;;;1.43;1.33;;;17.10;56.90;;;;;;5056000;28;20590;-47
2023/04/27 03:00:45;;;;;;;1.40;1.30;;;17.10;56.90;;;;;;5073937;28;20603;-47
2023/04/27 03:03:17;;;;;;;1.40;1.30;;;17.10;56.90;;;;;;5051639;28;20198;-47
2023/04/27 03:05:48;;;;;;;1.50;1.30;;;17.00;56.90;;;;;;5070812;28;20197;-47
2023/04/27 03:08:20;;;;;;;1.30;1.20;;;17.00;56.90;;;;;;5074383;28;20282;-47
2023/04/27 03:10:50;;;;;;;2.70;1.30;;;17.00;56.90;;;;;;5084099;28;20185;-47
2023/04/27 03:13:21;;;;;;;1.30;1.20;;;17.00;56.90;;;;;;5067986;28;20295;-47
2023/04/27 03:15:52;;;;;;;2.10;1.43;;;17.00;56.90;;;;;;5071622;28;20190;-47
2023/04/27 03:18:19;;;;;;;1.23;1.13;;;17.00;56.90;;;;;;5062901;28;20194;-47
2023/04/27 03:20:51;;;;;;;1.60;1.50;;;17.00;56.90;;;;;;5051941;28;20571;-47
2023/04/27 03:23:24;;;;;;;1.33;1.23;;;17.00;56.90;;;;;;5076188;28;20595;-47
2023/04/27 03:25:55;;;;;;;1.40;1.30;;;17.00;56.90;;;;;;5075648;28;20190;-47
2023/04/27 03:28:25;;;;;;;1.40;1.30;;;17.00;56.90;;;;;;5073184;28;20197;-47
2023/04/27 03:30:57;;;;;;;1.53;1.43;;;17.00;56.90;;;;;;5071568;28;20212;-47
2023/04/27 03:33:27;;;;;;;1.33;1.23;;;17.00;56.90;;;;;;5067607;28;20287;-47
2023/04/27 03:35:56;;;;;;;1.60;1.13;;;17.00;56.80;;;;;;5075204;28;20208;-47
2023/04/27 03:38:26;;;;;;;1.47;1.30;;;17.00;56.80;;;;;;5059157;28;20196;-47
2023/04/27 03:40:53;;;;;;;1.40;1.30;;;16.90;56.80;;;;;;5068301;28;20229;-48
2023/04/27 03:43:24;;;;;;;3.27;1.50;;;16.90;56.80;;;;;;5067331;28;20313;-47
2023/04/27 03:45:56;;;;;;;1.53;1.30;;;16.90;56.80;;;;;;5060128;28;20198;-47
2023/04/27 03:48:27;;;;;;;3.50;1.37;;;16.90;56.70;;;;;;5053788;28;20278;-47
2023/04/27 03:50:59;;;;;;;3.10;1.37;;;16.90;56.80;;;;;;5056729;28;20197;-47
2023/04/27 03:53:30;;;;;;;1.23;1.13;;;16.90;56.70;;;;;;5084738;28;20217;-48
2023/04/27 03:56:03;;;;;;;2.17;1.60;;;16.90;56.70;;;;;;5061944;28;20202;-47
2023/04/27 03:58:31;;;;;;;2.97;1.70;;;16.90;56.70;;;;;;5074429;28;20638;-47
2023/04/27 04:01:02;;;;;;;3.33;1.60;;;16.90;56.70;;;;;;5068080;28;20703;-47
2023/04/27 04:03:31;;;;;;;1.53;1.43;;;16.90;56.70;;;;;;5070418;28;20248;-47
2023/04/27 04:06:03;;;;;;;2.10;1.17;;;16.90;56.70;;;;;;5070756;28;20200;-47
2023/04/27 04:08:35;;;;;;;1.80;1.70;;;16.90;56.70;;;;;;5067197;28;20221;-47
2023/04/27 04:11:08;;;;;;;2.27;1.40;;;16.90;56.70;;;;;;5072682;28;20201;-47
2023/04/27 04:13:40;;;;;;;2.13;1.83;;;16.90;56.60;;;;;;5066345;28;20573;-47
2023/04/27 04:16:13;;;;;;;2.10;1.53;;;16.80;56.60;;;;;;5069715;28;20198;-47
2023/04/27 04:18:44;;;;;;;1.53;1.27;;;16.90;56.70;;;;;;5075005;28;20512;-47
2023/04/27 04:21:16;;;;;;;1.67;1.40;;;16.80;56.60;;;;;;5073400;28;20530;-47
2023/04/27 04:23:47;;;;;;;2.17;1.53;;;16.80;56.60;;;;;;5069334;28;20190;-47
2023/04/27 04:26:16;;;;;;;2.77;1.30;;;16.80;56.60;;;;;;5074573;28;20197;-47
2023/04/27 04:28:46;;;;;;;1.77;1.33;;;16.80;56.60;;;;;;5075407;28;20198;-47
2023/04/27 04:31:17;;;;;;;2.10;1.90;;;16.80;56.60;;;;;;5064966;28;20201;-47
2023/04/27 04:33:48;;;;;;;1.20;1.10;;;16.80;56.60;;;;;;5036284;28;20670;-47
2023/04/27 04:36:17;;;;;;;1.70;1.50;;;16.80;56.60;;;;;;5070762;28;20193;-47
2023/04/27 04:39:00;;;;;;;1.53;1.40;;;16.80;56.60;;;;;;5060230;28;20197;-47
2023/04/27 04:41:31;;;;;;;3.93;1.97;;;16.80;56.60;;;;;;5054853;28;20208;-48
2023/04/27 04:44:08;;;;;;;1.63;1.43;;;16.80;56.60;;;;;;5035146;28;20226;-47
2023/04/27 04:46:44;;;;;;;2.27;1.60;;;16.80;56.60;;;;;;5074879;28;20204;-48
2023/04/27 04:49:15;;;;;;;1.70;1.60;;;16.80;56.60;;;;;;5074797;28;20194;-47
2023/04/27 04:51:46;;;;;;;1.37;1.07;;;16.80;56.60;;;;;;5071373;28;20206;-47
2023/04/27 04:54:16;;;;;;;2.43;1.50;;;16.80;56.60;;;;;;5075962;28;20204;-47
2023/04/27 04:56:45;;;;;;;2.00;1.73;;;16.80;56.50;;;;;;5082670;28;20638;-47
2023/04/27 04:59:17;;;;;;;2.10;1.90;;;16.80;56.50;;;;;;5081778;28;20193;-47
2023/04/27 05:01:47;;;;;;;1.67;1.13;;;16.80;56.50;;;;;;5089011;28;20540;-48
2023/04/27 05:04:20;;;;;;;1.60;1.50;;;16.80;56.40;;;;;;5075412;28;20198;-47
2023/04/27 05:06:48;;;;;;;1.80;1.40;;;16.80;56.40;;;;;;5079115;28;20205;-47
2023/04/27 05:09:16;;;;;;;1.97;1.70;;;16.70;56.40;;;;;;5058155;28;20209;-47
2023/04/27 05:11:49;;;;;;;1.77;1.47;;;16.80;56.40;;;;;;5069099;28;20220;-47
2023/04/27 05:14:21;;;;;;;1.83;1.60;;;16.80;56.30;;;;;;5066955;28;20202;-47
2023/04/27 05:16:51;;;;;;;1.30;1.20;;;16.80;56.30;;;;;;5071709;28;20727;-47
2023/04/27 05:19:21;;;;;;;2.17;1.43;;;16.80;56.30;;;;;;5065813;28;20969;-47
2023/04/27 05:21:51;;;;;;;3.17;1.70;;;16.80;56.20;;;;;;5063944;28;20618;-47
2023/04/27 05:24:22;;;;;;;2.20;1.80;;;16.70;56.20;;;;;;5062139;28;20193;-47
2023/04/27 05:26:52;;;;;;;1.57;1.47;;;16.80;56.20;;;;;;5058088;28;20248;-47
2023/04/27 05:29:23;;;;;;;2.20;1.73;;;16.70;56.10;;;;;;5051283;28;20209;-47
2023/04/27 05:31:52;;;;;;;2.07;1.67;;;16.80;56.20;;;;;;5061816;28;20562;-47
2023/04/27 05:34:22;;;;;;;2.10;1.50;;;16.70;56.10;;;;;;5051863;28;20222;-47
2023/04/27 05:36:52;;;;;;;1.63;1.40;;;16.70;56.10;;;;;;5080133;28;20193;-47
2023/04/27 05:39:23;;;;;;;1.77;1.50;;;16.70;56.10;;;;;;5067602;28;20582;-47
2023/04/27 05:41:54;;;;;;;2.40;1.77;;;16.70;56.00;;;;;;5072168;28;20199;-47
2023/04/27 05:44:27;;;;;;;1.90;1.67;;;16.70;56.00;;;;;;5060247;28;20198;-47
2023/04/27 05:46:58;;;;;;;1.93;1.73;;;16.70;56.00;;;;;;5068304;28;20201;-47
2023/04/27 05:49:29;;;;;;;1.90;1.57;;;16.70;56.00;;;;;;5075507;28;20198;-48
2023/04/27 05:52:03;;;;;;;3.33;1.63;;;16.70;56.00;;;;;;5084158;28;20193;-48
2023/04/27 05:54:33;;;;;;;2.83;1.70;;;16.70;56.00;;;;;;5073651;28;20191;-47
2023/04/27 05:57:02;;;;;;;1.80;1.70;;;16.70;55.90;;;;;;5079383;28;20762;-47
2023/04/27 05:59:34;;;;;;;1.97;1.53;;;16.70;55.90;;;;;;5071092;28;20642;-47
2023/04/27 06:02:05;;;;;;;5.73;2.03;;;16.70;56.00;;;;;;5063417;28;20208;-47
2023/04/27 06:04:36;;;;;;;2.47;1.70;;;16.70;56.10;;;;;;5054990;28;20631;-47
2023/04/27 06:07:12;;;;;;;3.30;1.67;;;16.70;56.10;;;;;;5076506;28;20201;-47
2023/04/27 06:09:44;;;;;;;2.07;1.83;;;16.70;56.10;;;;;;5073206;28;20228;-47
2023/04/27 06:12:18;;;;;;;2.80;2.43;;;16.70;56.10;;;;;;5082051;28;20189;-47
2023/04/27 06:14:49;;;;;;;4.90;1.60;;;16.70;56.00;;;;;;5076608;28;20188;-47
2023/04/27 06:17:19;;;;;;;3.20;1.60;;;16.70;56.00;;;;;;5057418;28;20224;-48
2023/04/27 06:19:52;;;;;;;2.20;1.53;;;16.70;55.90;;;;;;5069783;28;20220;-47
2023/04/27 06:22:24;;;;;;;3.07;1.70;;;16.70;56.00;;;;;;5082096;28;20178;-47
2023/04/27 06:24:55;;;;;;;2.40;2.03;;;16.70;55.90;;;;;;5074944;28;20209;-48
2023/04/27 06:27:23;;;;;;;3.13;1.80;;;16.70;55.90;;;;;;5080157;28;20200;-47
2023/04/27 06:29:54;;;;;;;3.17;1.77;;;16.70;55.80;;;;;;5067429;28;20549;-47
2023/04/27 06:32:26;;;;;;;3.13;1.80;;;16.70;55.80;;;;;;5073877;28;20228;-48
2023/04/27 06:34:58;;;;;;;4.87;2.23;;;16.70;55.80;;;;;;5056692;28;20264;-47
2023/04/27 06:37:27;;;;;;;3.00;2.00;;;16.70;55.80;;;;;;5076227;28;20208;-47
2023/04/27 06:39:57;;;;;;;2.10;1.90;;;16.70;55.70;;;;;;5071783;28;20228;-47
2023/04/27 06:42:26;;;;;;;2.97;2.00;;;16.70;55.70;;;;;;5091611;28;20223;-47
2023/04/27 06:44:58;;;;;;;4.27;1.50;;;16.70;55.60;;;;;;5085547;28;20576;-47
2023/04/27 06:47:30;;;;;;;4.67;2.17;;;16.70;55.60;;;;;;5077874;28;20198;-47
2023/04/27 06:50:00;;;;;;;4.57;2.13;;;16.70;55.60;;;;;;5083274;28;20643;-47
2023/04/27 06:52:32;;;;;;;3.77;2.07;;;16.70;55.60;;;;;;5090544;28;20204;-47
2023/04/27 06:55:02;;;;;;;4.13;2.00;;;16.70;55.60;;;;;;5077554;28;20181;-47
2023/04/27 06:57:33;;;;;;;3.83;2.53;;;16.70;55.60;;;;;;5055206;28;20523;-48
2023/04/27 07:00:07;;;;;;;2.90;1.97;;;16.70;55.50;;;;;;5074992;28;20272;-47
2023/04/27 07:02:51;;;;;;;2.87;2.10;;;16.70;55.50;;;;;;5069271;28;20235;-47
2023/04/27 07:05:23;;;;;;;4.20;1.90;;;16.70;55.50;;;;;;5077498;28;20268;-47
2023/04/27 07:07:52;;;;;;;4.23;2.33;;;16.70;55.50;;;;;;5089081;28;20229;-47
2023/04/27 07:10:21;;;;;;;3.20;1.87;;;16.60;55.50;;;;;;5078020;28;20205;-47
2023/04/27 07:12:50;;;;;;;2.93;2.43;;;16.60;55.50;;;;;;5079621;28;20213;-47
2023/04/27 07:15:32;;;;;;;4.17;2.20;;;16.70;55.50;;;;;;5063931;28;20246;-47
2023/04/27 07:18:02;;;;;;;3.03;1.80;;;16.70;55.40;;;;;;5070502;28;20193;-47
2023/04/27 07:20:36;;;;;;;2.80;2.47;;;16.70;55.40;;;;;;5074396;28;20661;-47
2023/04/27 07:23:05;;;;;;;3.70;2.17;;;16.70;55.30;;;;;;5053675;28;20283;-47
2023/04/27 07:25:36;;;;;;;3.13;1.97;;;16.70;55.30;;;;;;5069421;28;20668;-48
2023/04/27 07:28:08;;;;;;;2.87;2.17;;;16.70;55.30;;;;;;5063868;28;20754;-47
2023/04/27 07:30:41;;;;;;;4.03;2.10;;;16.70;55.30;;;;;;5073095;28;20251;-47
2023/04/27 07:33:15;;;;;;;2.30;1.70;;;16.70;55.30;;;;;;5070328;28;20217;-47
2023/04/27 07:35:47;;;;;;;3.07;1.80;;;16.70;55.20;;;;;;5075656;28;20197;-47
2023/04/27 07:38:19;;;;;;;2.70;2.30;;;16.70;55.10;;;;;;5077590;28;20253;-47
2023/04/27 07:40:51;;;;;;;2.03;1.87;;;16.70;55.10;;;;;;5077458;28;20238;-47
2023/04/27 07:43:24;;;;;;;3.20;2.03;;;16.70;55.10;;;;;;5043054;28;20202;-47
2023/04/27 07:45:57;;;;;;;4.00;2.27;;;16.70;55.00;;;;;;5073780;28;20286;-47
2023/04/27 07:48:27;;;;;;;4.43;2.37;;;16.70;55.00;;;;;;5074850;28;20212;-47
2023/04/27 07:50:54;;;;;;;2.20;1.97;;;16.70;55.00;;;;;;5076717;28;20193;-47
2023/04/27 07:53:25;;;;;;;3.17;2.00;;;16.80;55.00;;;;;;5072774;28;20519;-47
2023/04/27 07:55:56;;;;;;;3.53;2.03;;;16.80;54.90;;;;;;5073509;28;20671;-47
2023/04/27 07:58:27;;;;;;;3.30;2.10;;;16.70;54.80;;;;;;5072381;28;20181;-47
2023/04/27 08:00:55;;;;;;;3.57;2.23;;;16.70;54.80;;;;;;5054067;28;20224;-47
2023/04/27 08:03:23;;;;;;;2.87;2.47;;;16.70;54.70;;;;;;5072670;28;20278;-47
2023/04/27 08:05:52;;;;;;;3.40;2.40;;;16.80;54.80;;;;;;5073298;28;20221;-47
2023/04/27 08:08:22;;;;;;;2.73;1.80;;;16.80;54.80;;;;;;5074060;28;20646;-47
2023/04/27 08:10:52;;;;;;;5.10;2.57;;;16.80;54.80;;;;;;5072851;28;20284;-47
2023/04/27 08:13:23;;;;;;;3.73;2.47;;;16.80;54.80;;;;;;5069506;28;20244;-47
2023/04/27 08:15:58;;;;;;;4.67;2.40;;;16.80;54.80;;;;;;5047792;28;20268;-47
2023/04/27 08:18:39;;;;;;;3.43;2.50;;;16.80;54.70;;;;;;5074759;28;20194;-47
2023/04/27 08:21:08;;;;;;;2.47;1.70;;;16.80;54.80;;;;;;5048977;28;20635;-47
2023/04/27 08:23:37;;;;;;;2.37;1.83;;;16.80;54.70;;;;;;5074325;28;20717;-47
2023/04/27 08:26:21;;;;;;;3.57;2.03;;;16.80;54.70;;;;;;5049391;28;20233;-47
2023/04/27 08:28:56;;;;;;;2.43;2.23;;;16.80;54.60;;;;;;5069729;28;20201;-47
2023/04/27 08:31:25;;;;;;;2.07;1.80;;;16.80;54.50;;;;;;5066186;28;20213;-47
2023/04/27 08:33:57;;;;;;;2.87;2.10;;;16.80;54.50;;;;;;5056832;28;20220;-47
2023/04/27 08:36:28;;;;;;;3.10;2.10;;;16.80;54.50;;;;;;5070666;28;20182;-47
2023/04/27 08:38:58;;;;;;;3.03;1.77;;;16.80;54.40;;;;;;5074510;28;20276;-47
2023/04/27 08:41:28;;;;;;;2.77;1.97;;;16.90;54.50;;;;;;5070783;28;20198;-47
2023/04/27 08:43:55;;;;;;;2.93;2.00;;;16.90;54.50;;;;;;5068141;28;20217;-47
2023/04/27 08:46:30;;;;;;;1.97;1.73;;;16.80;54.40;;;;;;5069403;28;20204;-48
2023/04/27 08:49:00;;;;;;;2.33;1.77;;;16.90;54.40;;;;;;5055740;28;20224;-47
2023/04/27 08:51:32;;;;;;;3.37;1.60;;;16.90;54.40;;;;;;5078451;28;20197;-48
2023/04/27 08:54:03;;;;;;;1.73;1.60;;;16.90;54.60;;;;;;5032570;28;20266;-48
2023/04/27 08:56:33;;;;;;;2.07;1.57;;;16.90;54.50;;;;;;5077451;28;20208;-47
2023/04/27 08:59:13;;;;;;;2.50;2.07;;;16.90;54.50;;;;;;5087390;28;20189;-47
2023/04/27 09:01:47;;;;;;;4.10;2.13;;;16.90;54.30;;;;;;5087665;28;20228;-47
2023/04/27 09:04:19;;;;;;;3.37;1.80;;;16.90;54.30;;;;;;5052718;28;20206;-47
2023/04/27 09:06:51;;;;;;;3.63;2.00;;;16.90;54.30;;;;;;5074040;28;20197;-47
2023/04/27 09:09:25;;;;;;;2.70;1.77;;;16.90;54.30;;;;;;5045931;28;20212;-48
2023/04/27 09:11:55;;;;;;;2.37;1.90;;;16.90;54.30;;;;;;5070446;28;20577;-47
2023/04/27 09:14:34;;;;;;;2.23;1.60;;;17.00;54.40;;;;;;5070394;28;20212;-47
2023/04/27 09:17:10;;;;;;;3.67;1.70;;;17.00;54.40;;;;;;5072354;28;20647;-47
2023/04/27 09:19:41;;;;;;;3.13;1.93;;;17.00;54.30;;;;;;5058422;28;20202;-47
2023/04/27 09:22:14;;;;;;;3.67;1.87;;;17.00;54.40;;;;;;5071249;28;20194;-47
2023/04/27 09:24:51;;;;;;;1.93;1.50;;;17.00;54.20;;;;;;5054384;28;20604;-47
2023/04/27 09:27:20;;;;;;;2.83;2.10;;;17.00;54.10;;;;;;5050769;28;20194;-47
2023/04/27 09:29:56;;;;;;;2.10;1.83;;;17.00;54.10;;;;;;5055321;28;20197;-47
2023/04/27 09:32:30;;;;;;;2.40;2.00;;;17.00;54.10;;;;;;5072817;28;20213;-47
2023/04/27 09:35:02;;;;;;;3.27;1.70;;;17.00;54.10;;;;;;5052189;28;20223;-47
2023/04/27 09:37:34;;;;;;;2.60;1.90;;;17.10;54.10;;;;;;5054590;28;20198;-47
2023/04/27 09:40:05;;;;;;;2.50;1.80;;;17.10;54.00;;;;;;5060837;28;20260;-47
2023/04/27 09:42:37;;;;;;;3.27;2.03;;;17.10;53.70;;;;;;5074726;28;20202;-47
2023/04/27 09:45:10;;;;;;;2.80;1.97;;;17.10;53.60;;;;;;5052012;28;20201;-47
2023/04/27 09:47:43;;;;;;;2.97;1.90;;;17.10;53.60;;;;;;5068744;28;20201;-47
2023/04/27 09:50:16;;;;;;;2.20;1.80;;;17.10;53.60;;;;;;5065276;28;20264;-47
2023/04/27 09:52:48;;;;;;;1.77;1.40;;;17.10;53.60;;;;;;5071411;28;20201;-47
2023/04/27 09:56:01;;;;;;;2.43;2.00;;;17.10;53.50;;;;;;5066246;28;20245;-47
2023/04/27 09:59:11;;;;;;;3.50;2.13;;;17.20;53.60;;;;;;5019261;28;20207;-47
2023/04/27 10:01:50;;;;;;;2.80;1.73;;;17.10;53.70;;;;;;4935685;28;20241;-47
2023/04/27 10:05:11;;;;;;;2.67;1.90;;;17.20;53.80;;;;;;5062345;28;20553;-47
2023/04/27 10:07:44;;;;;;;3.57;1.90;;;17.20;53.80;;;;;;5066008;28;20220;-47
2023/04/27 10:10:19;;;;;;;2.90;1.90;;;17.20;53.70;;;;;;5057461;28;20201;-47
2023/04/27 10:13:00;;;;;;;4.37;2.27;;;17.20;53.50;;;;;;5066253;28;20198;-47
2023/04/27 10:15:47;;;;;;;2.43;2.10;;;17.20;53.50;;;;;;5068376;28;20351;-48
2023/04/27 10:18:30;;;;;;;2.73;1.80;;;17.20;53.50;;;;;;5066894;28;20634;-47
2023/04/27 10:21:11;;;;;;;2.57;1.80;;;17.20;53.50;;;;;;5068216;28;20668;-48
2023/04/27 10:23:50;;;;;;;2.27;1.77;;;17.30;53.70;;;;;;5074819;28;20197;-48
2023/04/27 10:26:26;;;;;;;2.23;1.63;;;17.30;53.60;;;;;;5058086;28;20678;-47
2023/04/27 10:29:09;;;;;;;3.17;1.87;;;17.30;53.70;;;;;;5062652;28;20186;-47
2023/04/27 10:31:46;;;;;;;2.30;2.10;;;17.30;53.70;;;;;;5071775;28;20224;-48
2023/04/27 10:34:20;;;;;;;2.47;2.07;;;17.30;53.70;;;;;;5052551;28;20228;-47
2023/04/27 10:37:08;;;;;;;2.03;1.80;;;17.40;53.70;;;;;;5071982;28;20182;-47
2023/04/27 10:39:50;;;;;;;1.83;1.40;;;17.40;53.70;;;;;;5045058;28;20305;-47
2023/04/27 10:42:29;;;;;;;1.93;1.80;;;17.40;53.70;;;;;;5048661;28;20207;-47
2023/04/27 10:44:57;;;;;;;2.20;1.63;;;17.40;54.40;;;;;;5042332;28;20220;-47
2023/04/27 10:47:41;;;;;;;1.63;1.53;;;17.40;53.70;;;;;;5058580;28;20218;-47
2023/04/27 10:50:17;;;;;;;2.73;1.90;;;17.40;53.70;;;;;;5043707;28;20198;-47
2023/04/27 10:52:50;;;;;;;2.00;1.80;;;17.40;53.70;;;;;;5053385;28;20534;-48
2023/04/27 10:55:21;;;;;;;1.70;1.50;;;17.40;53.70;;;;;;5061369;28;20221;-48
2023/04/27 10:57:54;;;;;;;2.93;2.00;;;17.50;53.80;;;;;;5057819;28;20256;-48
2023/04/27 11:00:31;;;;;;;2.33;1.33;;;17.50;53.70;;;;;;5053115;28;20193;-47
2023/04/27 11:03:28;;;;;;;2.43;1.57;;;17.50;53.80;;;;;;5054402;28;20186;-47
2023/04/27 11:06:05;;;;;;;2.80;1.63;;;17.50;53.90;;;;;;5029214;28;20221;-47
2023/04/27 11:08:43;;;;;;;2.40;1.30;;;17.50;53.90;;;;;;5031232;28;20213;-47
2023/04/27 11:11:16;;;;;;;2.33;1.60;;;17.50;54.00;;;;;;5049868;28;20202;-46
2023/04/27 11:13:49;;;;;;;1.73;1.63;;;17.50;53.90;;;;;;5034094;28;20214;-46
2023/04/27 11:16:18;;;;;;;1.73;1.57;;;17.50;53.90;;;;;;5034222;28;20202;-46
2023/04/27 11:18:49;;;;;;;2.87;1.40;;;17.60;54.00;;;;;;5035120;28;20280;-46
2023/04/27 11:21:20;;;;;;;1.77;1.50;;;17.60;53.90;;;;;;5057905;28;20747;-47
2023/04/27 11:23:49;;;;;;;2.37;1.60;;;17.60;53.90;;;;;;5039316;28;20209;-49
2023/04/27 11:26:21;;;;;;;4.13;1.63;;;17.60;54.00;;;;;;5052640;28;20630;-48
2023/04/27 11:29:08;;;;;;;2.73;1.90;;;17.60;53.80;;;;;;5034526;28;20201;-49
2023/04/27 11:31:48;;;;;;;4.73;1.77;;;17.60;53.80;;;;;;5052223;28;20219;-48
2023/04/27 11:34:22;;;;;;;1.83;1.47;;;17.60;53.80;;;;;;5034882;28;20218;-48
2023/04/27 11:37:03;;;;;;;1.73;1.43;;;17.60;53.90;;;;;;5014659;28;20194;-48
2023/04/27 11:39:45;;;;;;;2.20;1.73;;;17.60;53.80;;;;;;5035831;28;20229;-48
2023/04/27 11:42:24;;;;;;;2.27;1.60;;;17.60;53.90;;;;;;5051895;28;20201;-47
2023/04/27 11:44:57;;;;;;;1.93;1.57;;;17.70;54.00;;;;;;5045097;28;20226;-47
2023/04/27 11:47:34;;;;;;;2.47;1.77;;;17.70;54.00;;;;;;5040139;28;20221;-47
2023/04/27 11:50:07;;;;;;;1.50;1.40;;;17.70;54.00;;;;;;5035205;28;20695;-49
2023/04/27 11:52:41;;;;;;;2.07;1.70;;;17.70;54.00;;;;;;5038955;28;20190;-48
2023/04/27 11:55:14;;;;;;;1.90;1.43;;;17.70;53.90;;;;;;5047055;28;20211;-46
2023/04/27 11:57:44;;;;;;;1.90;1.80;;;17.70;53.90;;;;;;5051502;28;20194;-47
2023/04/27 12:00:16;;;;;;;2.10;1.40;;;17.70;53.90;;;;;;5051474;28;20199;-45
2023/04/27 12:02:46;;;;;;;2.00;1.60;;;17.70;53.80;;;;;;5039650;28;20198;-47
2023/04/27 12:05:19;;;;;;;4.33;1.83;;;17.80;53.90;;;;;;5053706;28;20208;-46
2023/04/27 12:08:02;;;;;;;1.50;1.40;;;17.80;53.80;;;;;;5049718;28;20226;-45
2023/04/27 12:10:33;;;;;;;2.00;1.70;;;17.80;53.90;;;;;;5051511;28;20228;-47
2023/04/27 12:13:03;;;;;;;1.77;1.50;;;17.80;53.90;;;;;;5047548;28;20202;-45
2023/04/27 12:15:35;;;;;;;2.10;1.60;;;17.80;53.90;;;;;;5052623;28;20238;-48
2023/04/27 12:18:06;;;;;;;2.93;1.80;;;17.80;53.90;;;;;;5056995;28;20210;-48
2023/04/27 12:20:37;;;;;;;1.70;1.30;;;17.80;53.90;;;;;;5049989;28;20272;-46
2023/04/27 12:23:09;;;;;;;3.57;1.90;;;17.90;54.00;;;;;;5048415;28;20191;-48
2023/04/27 12:25:42;;;;;;;1.83;1.50;;;17.80;53.80;;;;;;5050739;28;20195;-49
2023/04/27 12:28:17;;;;;;;4.17;1.53;;;17.80;53.90;;;;;;5066161;28;20222;-48
2023/04/27 12:30:50;;;;;;;2.00;1.53;;;17.80;54.00;;;;;;5053794;28;20197;-48
2023/04/27 12:33:20;;;;;;;3.13;1.83;;;17.90;53.90;;;;;;5029532;28;20207;-48
2023/04/27 12:35:53;;;;;;;2.87;1.67;;;17.90;53.90;;;;;;5056979;28;20202;-49
2023/04/27 12:38:22;;;;;;;2.17;1.57;;;17.90;53.90;;;;;;5050042;28;20202;-49
2023/04/27 12:40:49;;;;;;;2.27;1.60;;;17.90;54.00;;;;;;5049666;28;20591;-48
2023/04/27 12:43:27;;;;;;;1.60;1.50;;;17.90;54.00;;;;;;5066425;28;20205;-48
2023/04/27 12:45:59;;;;;;;3.33;1.80;;;17.90;54.00;;;;;;5078904;28;20243;-46
2023/04/27 12:48:27;;;;;;;2.03;1.50;;;17.90;54.00;;;;;;5084951;28;20197;-46
2023/04/27 12:50:57;;;;;;;1.90;1.60;;;17.90;54.00;;;;;;5070401;28;20627;-48
2023/04/27 12:53:29;;;;;;;1.87;1.50;;;18.00;54.20;;;;;;5069988;28;20627;-48
2023/04/27 12:56:00;;;;;;;4.13;1.73;;;18.00;54.10;;;;;;5068054;28;20690;-47
2023/04/27 12:58:45;;;;;;;1.60;1.43;;;18.00;54.20;;;;;;5072826;28;20286;-47
2023/04/27 13:01:16;;;;;;;1.90;1.37;;;18.00;54.20;;;;;;5068325;28;20200;-47
2023/04/27 13:03:46;;;;;;;2.00;1.50;;;18.00;54.30;;;;;;5072714;28;20208;-47
2023/04/27 13:06:16;;;;;;;2.17;1.37;;;18.00;54.80;;;;;;5080160;28;20194;-47
2023/04/27 13:08:46;;;;;;;1.50;1.40;;;18.00;54.20;;;;;;5076927;28;20674;-47
2023/04/27 13:11:16;;;;;;;2.40;1.37;;;18.00;54.20;;;;;;5084898;28;20228;-46
2023/04/27 13:13:48;;;;;;;1.53;1.40;;;18.00;54.20;;;;;;5072563;28;20607;-46
2023/04/27 13:16:20;;;;;;;1.70;1.47;;;18.00;54.20;;;;;;5072375;28;20655;-46